sensor_id;sensor_type;location;lat;lon;timestamp;pressure;altitude;pressure_sealevel;temperature;humidity
19831;BME280;10076;52.008;4.708;2024-01-15T00:01:42;100461.34;;;4.63;100.00
19831;BME280;10076;52.008;4.708;2024-01-15T00:04:08;100449.41;;;4.42;100.00
19831;BME280;10076;52.008;4.708;2024-01-15T00:06:33;100452.81;;;4.27;100.00
19831;BME280;10076;52.008;4.708;2024-01-15T00:08:58;100451.13;;;4.26;100.00
19831;BME280;10076;52.008;4.708;2024-01-15T00:11:24;100447.59;;;4.27;100.00
19831;BME280;10076;52.008;4.708;2024-01-15T00:13:49;100445.34;;;4.19;100.00
19831;BME280;10076;52.008;4.708;2024-01-15T00:16:14;100441.09;;;4.34;100.00
19831;BME280;10076;52.008;4.708;2024-01-15T00:18:40;100448.06;;;4.18;100.00
19831;BME280;10076;52.008;4.708;2024-01-15T00:21:05;100440.09;;;4.04;100.00
19831;BME280;10076;52.008;4.708;2024-01-15T00:23:30;100436.69;;;4.02;100.00
19831;BME280;10076;52.008;4.708;2024-01-15T00:25:56;100431.00;;;3.94;100.00
19831;BME280;10076;52.008;4.708;2024-01-15T00:28:21;100426.03;;;3.90;100.00
19831;BME280;10076;52.008;4.708;2024-01-15T00:30:46;100426.25;;;3.68;100.00
19831;BME280;10076;52.008;4.708;2024-01-15T00:33:12;100426.47;;;3.81;100.00
19831;BME280;10076;52.008;4.708;2024-01-15T00:35:37;100428.25;;;3.80;100.00
19831;BME280;10076;52.008;4.708;2024-01-15T00:38:03;100432.56;;;3.81;100.00
19831;BME280;10076;52.008;4.708;2024-01-15T00:40:28;100419.25;;;3.86;100.00
19831;BME280;10076;52.008;4.708;2024-01-15T00:42:53;100415.94;;;3.82;100.00
19831;BME280;10076;52.008;4.708;2024-01-15T00:45:19;100410.28;;;3.74;100.00
19831;BME280;10076;52.008;4.708;2024-01-15T00:47:44;100407.59;;;3.76;100.00
19831;BME280;10076;52.008;4.708;2024-01-15T00:50:09;100406.59;;;3.78;100.00
19831;BME280;10076;52.008;4.708;2024-01-15T00:52:35;100398.53;;;3.83;100.00
19831;BME280;10076;52.008;4.708;2024-01-15T00:55:00;100402.50;;;3.73;100.00
19831;BME280;10076;52.008;4.708;2024-01-15T00:57:25;100402.59;;;3.71;100.00
19831;BME280;10076;52.008;4.708;2024-01-15T00:59:51;100402.38;;;3.76;100.00
19831;BME280;10076;52.008;4.708;2024-01-15T01:02:16;100398.91;;;3.92;100.00
19831;BME280;10076;52.008;4.708;2024-01-15T01:04:41;100389.78;;;3.84;100.00
19831;BME280;10076;52.008;4.708;2024-01-15T01:07:07;100396.63;;;3.86;100.00
19831;BME280;10076;52.008;4.708;2024-01-15T01:09:32;100397.28;;;3.73;100.00
19831;BME280;10076;52.008;4.708;2024-01-15T01:11:58;100390.13;;;3.76;100.00
19831;BME280;10076;52.008;4.708;2024-01-15T01:14:23;100388.91;;;3.83;100.00
19831;BME280;10076;52.008;4.708;2024-01-15T01:16:48;100386.31;;;3.83;100.00
19831;BME280;10076;52.008;4.708;2024-01-15T01:19:14;100386.00;;;3.72;100.00
19831;BME280;10076;52.008;4.708;2024-01-15T01:21:39;100381.94;;;3.84;100.00
19831;BME280;10076;52.008;4.708;2024-01-15T01:24:05;100385.09;;;3.90;100.00
19831;BME280;10076;52.008;4.708;2024-01-15T01:26:30;100392.13;;;3.88;100.00
19831;BME280;10076;52.008;4.708;2024-01-15T01:28:59;100381.69;;;3.88;100.00
19831;BME280;10076;52.008;4.708;2024-01-15T01:31:24;100391.53;;;4.00;100.00
19831;BME280;10076;52.008;4.708;2024-01-15T01:33:50;100384.28;;;4.05;100.00
19831;BME280;10076;52.008;4.708;2024-01-15T01:36:15;100384.59;;;3.99;100.00
19831;BME280;10076;52.008;4.708;2024-01-15T01:38:41;100383.56;;;3.86;100.00
19831;BME280;10076;52.008;4.708;2024-01-15T01:41:06;100375.16;;;3.97;100.00
19831;BME280;10076;52.008;4.708;2024-01-15T01:43:32;100382.22;;;4.11;100.00
19831;BME280;10076;52.008;4.708;2024-01-15T01:45:57;100385.84;;;4.09;100.00
19831;BME280;10076;52.008;4.708;2024-01-15T01:48:24;100377.50;;;4.18;100.00
19831;BME280;10076;52.008;4.708;2024-01-15T01:50:52;100375.31;;;3.94;100.00
19831;BME280;10076;52.008;4.708;2024-01-15T01:53:18;100373.53;;;4.11;100.00
19831;BME280;10076;52.008;4.708;2024-01-15T01:55:44;100383.84;;;3.97;100.00
19831;BME280;10076;52.008;4.708;2024-01-15T01:58:11;100376.84;;;3.98;100.00
19831;BME280;10076;52.008;4.708;2024-01-15T02:00:36;100377.47;;;3.86;100.00
19831;BME280;10076;52.008;4.708;2024-01-15T02:03:01;100378.47;;;3.83;100.00
19831;BME280;10076;52.008;4.708;2024-01-15T02:05:28;100380.16;;;3.84;100.00
19831;BME280;10076;52.008;4.708;2024-01-15T02:07:54;100380.78;;;3.72;100.00
19831;BME280;10076;52.008;4.708;2024-01-15T02:10:20;100374.88;;;3.86;100.00
19831;BME280;10076;52.008;4.708;2024-01-15T02:12:45;100375.56;;;3.89;100.00
19831;BME280;10076;52.008;4.708;2024-01-15T02:15:13;100363.69;;;3.84;100.00
19831;BME280;10076;52.008;4.708;2024-01-15T02:18:01;100367.81;;;3.71;100.00
19831;BME280;10076;52.008;4.708;2024-01-15T02:20:27;100367.88;;;3.86;100.00
19831;BME280;10076;52.008;4.708;2024-01-15T02:22:53;100376.09;;;3.79;100.00
19831;BME280;10076;52.008;4.708;2024-01-15T02:25:18;100368.00;;;4.00;100.00
19831;BME280;10076;52.008;4.708;2024-01-15T02:27:44;100367.94;;;3.85;100.00
19831;BME280;10076;52.008;4.708;2024-01-15T02:30:13;100357.28;;;3.89;100.00
19831;BME280;10076;52.008;4.708;2024-01-15T02:32:38;100361.44;;;3.76;100.00
19831;BME280;10076;52.008;4.708;2024-01-15T02:35:04;100362.03;;;3.64;100.00
19831;BME280;10076;52.008;4.708;2024-01-15T02:37:29;100356.69;;;3.67;100.00
19831;BME280;10076;52.008;4.708;2024-01-15T02:39:55;100359.28;;;3.67;100.00
19831;BME280;10076;52.008;4.708;2024-01-15T02:42:20;100356.97;;;3.78;100.00
19831;BME280;10076;52.008;4.708;2024-01-15T02:44:45;100349.16;;;3.78;100.00
19831;BME280;10076;52.008;4.708;2024-01-15T02:47:11;100352.97;;;3.71;100.00
19831;BME280;10076;52.008;4.708;2024-01-15T02:49:36;100347.91;;;3.85;100.00
19831;BME280;10076;52.008;4.708;2024-01-15T02:52:01;100349.75;;;3.83;100.00
19831;BME280;10076;52.008;4.708;2024-01-15T02:54:27;100346.63;;;3.60;100.00
19831;BME280;10076;52.008;4.708;2024-01-15T02:56:52;100350.94;;;3.61;100.00
19831;BME280;10076;52.008;4.708;2024-01-15T02:59:18;100348.63;;;3.89;100.00
19831;BME280;10076;52.008;4.708;2024-01-15T03:01:43;100345.75;;;3.76;100.00
19831;BME280;10076;52.008;4.708;2024-01-15T03:04:08;100351.66;;;3.80;100.00
19831;BME280;10076;52.008;4.708;2024-01-15T03:06:34;100351.94;;;3.75;100.00
19831;BME280;10076;52.008;4.708;2024-01-15T03:08:59;100353.88;;;3.87;100.00
19831;BME280;10076;52.008;4.708;2024-01-15T03:11:24;100342.00;;;3.82;100.00
19831;BME280;10076;52.008;4.708;2024-01-15T03:13:49;100345.09;;;3.90;100.00
19831;BME280;10076;52.008;4.708;2024-01-15T03:16:15;100348.22;;;3.96;100.00
19831;BME280;10076;52.008;4.708;2024-01-15T03:18:40;100345.13;;;3.88;100.00
19831;BME280;10076;52.008;4.708;2024-01-15T03:21:06;100350.22;;;3.91;100.00
19831;BME280;10076;52.008;4.708;2024-01-15T03:23:31;100342.53;;;3.88;100.00
19831;BME280;10076;52.008;4.708;2024-01-15T03:25:56;100343.13;;;3.93;100.00
19831;BME280;10076;52.008;4.708;2024-01-15T03:28:22;100339.47;;;3.80;100.00
19831;BME280;10076;52.008;4.708;2024-01-15T03:30:47;100343.09;;;3.78;100.00
19831;BME280;10076;52.008;4.708;2024-01-15T03:33:12;100334.31;;;3.79;100.00
19831;BME280;10076;52.008;4.708;2024-01-15T03:35:37;100332.53;;;3.96;100.00
19831;BME280;10076;52.008;4.708;2024-01-15T03:38:03;100334.56;;;3.91;100.00
19831;BME280;10076;52.008;4.708;2024-01-15T03:40:28;100344.22;;;3.89;100.00
19831;BME280;10076;52.008;4.708;2024-01-15T03:42:54;100348.53;;;3.90;100.00
19831;BME280;10076;52.008;4.708;2024-01-15T03:45:19;100358.50;;;3.82;100.00
19831;BME280;10076;52.008;4.708;2024-01-15T03:47:44;100350.34;;;3.88;100.00
19831;BME280;10076;52.008;4.708;2024-01-15T03:50:10;100345.59;;;3.96;100.00
19831;BME280;10076;52.008;4.708;2024-01-15T03:52:35;100346.72;;;3.75;100.00
19831;BME280;10076;52.008;4.708;2024-01-15T03:55:00;100337.00;;;3.77;100.00
19831;BME280;10076;52.008;4.708;2024-01-15T03:57:26;100333.47;;;3.78;100.00
19831;BME280;10076;52.008;4.708;2024-01-15T03:59:54;100330.38;;;3.87;100.00
19831;BME280;10076;52.008;4.708;2024-01-15T04:02:19;100339.47;;;3.80;100.00
19831;BME280;10076;52.008;4.708;2024-01-15T04:04:44;100334.31;;;3.79;100.00
19831;BME280;10076;52.008;4.708;2024-01-15T04:07:10;100335.41;;;3.75;100.00
19831;BME280;10076;52.008;4.708;2024-01-15T04:09:35;100324.81;;;3.78;100.00
19831;BME280;10076;52.008;4.708;2024-01-15T04:12:00;100335.00;;;3.82;100.00
19831;BME280;10076;52.008;4.708;2024-01-15T04:14:26;100325.56;;;3.80;100.00
19831;BME280;10076;52.008;4.708;2024-01-15T04:16:51;100327.31;;;3.96;100.00
19831;BME280;10076;52.008;4.708;2024-01-15T04:19:16;100323.47;;;4.03;100.00
19831;BME280;10076;52.008;4.708;2024-01-15T04:21:42;100325.59;;;4.12;100.00
19831;BME280;10076;52.008;4.708;2024-01-15T04:24:07;100324.75;;;4.44;100.00
19831;BME280;10076;52.008;4.708;2024-01-15T04:26:32;100324.56;;;4.47;100.00
19831;BME280;10076;52.008;4.708;2024-01-15T04:28:58;100317.78;;;4.27;100.00
19831;BME280;10076;52.008;4.708;2024-01-15T04:31:24;100308.66;;;4.19;100.00
19831;BME280;10076;52.008;4.708;2024-01-15T04:33:50;100310.03;;;4.26;100.00
19831;BME280;10076;52.008;4.708;2024-01-15T04:36:15;100307.50;;;4.40;100.00
19831;BME280;10076;52.008;4.708;2024-01-15T04:38:41;100310.81;;;4.43;100.00
19831;BME280;10076;52.008;4.708;2024-01-15T04:41:11;100300.59;;;4.23;100.00
19831;BME280;10076;52.008;4.708;2024-01-15T04:43:36;100299.16;;;4.18;100.00
19831;BME280;10076;52.008;4.708;2024-01-15T04:46:01;100295.19;;;4.26;100.00
19831;BME280;10076;52.008;4.708;2024-01-15T04:48:28;100292.34;;;4.31;100.00
19831;BME280;10076;52.008;4.708;2024-01-15T04:50:53;100288.91;;;3.98;100.00
19831;BME280;10076;52.008;4.708;2024-01-15T04:53:19;100285.63;;;3.95;100.00
19831;BME280;10076;52.008;4.708;2024-01-15T04:55:44;100293.09;;;3.85;100.00
19831;BME280;10076;52.008;4.708;2024-01-15T04:58:09;100292.34;;;3.49;100.00
19831;BME280;10076;52.008;4.708;2024-01-15T05:00:34;100294.97;;;3.49;100.00
19831;BME280;10076;52.008;4.708;2024-01-15T05:03:00;100296.19;;;3.42;100.00
19831;BME280;10076;52.008;4.708;2024-01-15T05:05:25;100290.22;;;3.41;100.00
19831;BME280;10076;52.008;4.708;2024-01-15T05:07:51;100285.31;;;3.35;100.00
19831;BME280;10076;52.008;4.708;2024-01-15T05:10:16;100280.16;;;3.50;100.00
19831;BME280;10076;52.008;4.708;2024-01-15T05:12:41;100277.16;;;3.24;100.00
19831;BME280;10076;52.008;4.708;2024-01-15T05:15:07;100276.31;;;3.23;100.00
19831;BME280;10076;52.008;4.708;2024-01-15T05:17:32;100279.31;;;3.16;100.00
19831;BME280;10076;52.008;4.708;2024-01-15T05:19:57;100279.06;;;3.03;100.00
19831;BME280;10076;52.008;4.708;2024-01-15T05:22:23;100272.72;;;3.09;100.00
19831;BME280;10076;52.008;4.708;2024-01-15T05:24:49;100281.59;;;3.05;100.00
19831;BME280;10076;52.008;4.708;2024-01-15T05:27:15;100281.91;;;2.99;100.00
19831;BME280;10076;52.008;4.708;2024-01-15T05:29:40;100290.09;;;2.91;100.00
19831;BME280;10076;52.008;4.708;2024-01-15T05:32:05;100284.34;;;3.02;100.00
19831;BME280;10076;52.008;4.708;2024-01-15T05:34:31;100284.72;;;2.94;100.00
19831;BME280;10076;52.008;4.708;2024-01-15T05:36:56;100295.47;;;3.05;100.00
19831;BME280;10076;52.008;4.708;2024-01-15T05:39:21;100282.13;;;3.11;100.00
19831;BME280;10076;52.008;4.708;2024-01-15T05:41:47;100276.94;;;3.11;100.00
19831;BME280;10076;52.008;4.708;2024-01-15T05:44:12;100275.41;;;3.07;100.00
19831;BME280;10076;52.008;4.708;2024-01-15T05:46:37;100281.03;;;2.98;100.00
19831;BME280;10076;52.008;4.708;2024-01-15T05:49:03;100273.59;;;2.91;100.00
19831;BME280;10076;52.008;4.708;2024-01-15T05:51:28;100271.94;;;3.07;100.00
19831;BME280;10076;52.008;4.708;2024-01-15T05:53:53;100278.38;;;3.00;100.00
19831;BME280;10076;52.008;4.708;2024-01-15T05:56:18;100272.81;;;2.89;100.00
19831;BME280;10076;52.008;4.708;2024-01-15T05:58:44;100267.44;;;2.75;100.00
19831;BME280;10076;52.008;4.708;2024-01-15T06:01:09;100262.81;;;2.63;100.00
19831;BME280;10076;52.008;4.708;2024-01-15T06:03:35;100269.34;;;2.72;100.00
19831;BME280;10076;52.008;4.708;2024-01-15T06:06:00;100269.69;;;2.47;100.00
19831;BME280;10076;52.008;4.708;2024-01-15T06:08:25;100261.47;;;2.73;100.00
19831;BME280;10076;52.008;4.708;2024-01-15T06:10:52;100262.53;;;2.69;100.00
19831;BME280;10076;52.008;4.708;2024-01-15T06:13:18;100256.25;;;2.73;100.00
19831;BME280;10076;52.008;4.708;2024-01-15T06:15:43;100254.50;;;2.73;100.00
19831;BME280;10076;52.008;4.708;2024-01-15T06:18:08;100250.66;;;2.80;100.00
19831;BME280;10076;52.008;4.708;2024-01-15T06:20:34;100249.13;;;2.76;100.00
19831;BME280;10076;52.008;4.708;2024-01-15T06:22:59;100266.25;;;2.82;100.00
19831;BME280;10076;52.008;4.708;2024-01-15T06:25:24;100274.38;;;2.93;100.00
19831;BME280;10076;52.008;4.708;2024-01-15T06:27:50;100278.81;;;2.91;100.00
19831;BME280;10076;52.008;4.708;2024-01-15T06:30:15;100278.38;;;3.00;100.00
19831;BME280;10076;52.008;4.708;2024-01-15T06:32:40;100275.47;;;3.06;100.00
19831;BME280;10076;52.008;4.708;2024-01-15T06:35:06;100284.94;;;3.25;100.00
19831;BME280;10076;52.008;4.708;2024-01-15T06:37:31;100287.75;;;3.21;100.00
19831;BME280;10076;52.008;4.708;2024-01-15T06:39:57;100291.19;;;3.21;100.00
19831;BME280;10076;52.008;4.708;2024-01-15T06:42:23;100294.78;;;3.19;100.00
19831;BME280;10076;52.008;4.708;2024-01-15T06:44:48;100277.16;;;3.24;100.00
19831;BME280;10076;52.008;4.708;2024-01-15T06:47:15;100255.84;;;3.16;100.00
19831;BME280;10076;52.008;4.708;2024-01-15T06:49:42;100233.75;;;3.23;100.00
19831;BME280;10076;52.008;4.708;2024-01-15T06:52:08;100250.16;;;3.08;100.00
19831;BME280;10076;52.008;4.708;2024-01-15T06:54:33;100252.53;;;3.29;100.00
19831;BME280;10076;52.008;4.708;2024-01-15T06:56:58;100254.63;;;3.23;100.00
19831;BME280;10076;52.008;4.708;2024-01-15T06:59:24;100263.38;;;3.22;100.00
19831;BME280;10076;52.008;4.708;2024-01-15T07:01:49;100290.34;;;3.04;100.00
19831;BME280;10076;52.008;4.708;2024-01-15T07:04:15;100286.06;;;3.20;100.00
19831;BME280;10076;52.008;4.708;2024-01-15T07:06:40;100302.47;;;3.05;100.00
19831;BME280;10076;52.008;4.708;2024-01-15T07:09:05;100306.94;;;3.20;100.00
19831;BME280;10076;52.008;4.708;2024-01-15T07:11:31;100311.75;;;3.10;100.00
19831;BME280;10076;52.008;4.708;2024-01-15T07:13:57;100300.47;;;2.93;100.00
19831;BME280;10076;52.008;4.708;2024-01-15T07:16:22;100301.00;;;2.64;100.00
19831;BME280;10076;52.008;4.708;2024-01-15T07:18:47;100288.00;;;2.81;100.00
19831;BME280;10076;52.008;4.708;2024-01-15T07:21:13;100287.88;;;2.66;100.00
19831;BME280;10076;52.008;4.708;2024-01-15T07:23:38;100271.88;;;2.73;100.00
19831;BME280;10076;52.008;4.708;2024-01-15T07:26:03;100268.06;;;2.80;100.00
19831;BME280;10076;52.008;4.708;2024-01-15T07:28:30;100274.34;;;2.76;100.00
19831;BME280;10076;52.008;4.708;2024-01-15T07:30:56;100262.78;;;2.81;100.00
19831;BME280;10076;52.008;4.708;2024-01-15T07:33:21;100258.81;;;2.91;100.00
19831;BME280;10076;52.008;4.708;2024-01-15T07:35:46;100257.44;;;2.84;100.00
19831;BME280;10076;52.008;4.708;2024-01-15T07:38:12;100261.63;;;2.70;100.00
19831;BME280;10076;52.008;4.708;2024-01-15T07:40:37;100266.53;;;2.76;100.00
19831;BME280;10076;52.008;4.708;2024-01-15T07:43:03;100269.56;;;2.85;100.00
19831;BME280;10076;52.008;4.708;2024-01-15T07:45:28;100268.69;;;2.85;100.00
19831;BME280;10076;52.008;4.708;2024-01-15T07:47:53;100277.13;;;2.90;100.00
19831;BME280;10076;52.008;4.708;2024-01-15T07:50:19;100272.47;;;2.96;100.00
19831;BME280;10076;52.008;4.708;2024-01-15T07:52:44;100272.38;;;2.81;100.00
19831;BME280;10076;52.008;4.708;2024-01-15T07:55:10;100276.72;;;2.80;100.00
19831;BME280;10076;52.008;4.708;2024-01-15T07:57:35;100282.53;;;3.04;100.00
19831;BME280;10076;52.008;4.708;2024-01-15T08:00:01;100280.44;;;2.93;100.00
19831;BME280;10076;52.008;4.708;2024-01-15T08:02:28;100278.38;;;3.00;100.00
19831;BME280;10076;52.008;4.708;2024-01-15T08:04:54;100283.59;;;3.00;100.00
19831;BME280;10076;52.008;4.708;2024-01-15T08:07:19;100280.34;;;2.95;100.00
19831;BME280;10076;52.008;4.708;2024-01-15T08:09:44;100283.13;;;2.92;100.00
19831;BME280;10076;52.008;4.708;2024-01-15T08:12:12;100276.78;;;2.97;100.00
19831;BME280;10076;52.008;4.708;2024-01-15T08:14:38;100281.00;;;3.00;100.00
19831;BME280;10076;52.008;4.708;2024-01-15T08:17:04;100289.75;;;3.16;100.00
19831;BME280;10076;52.008;4.708;2024-01-15T08:19:29;100286.66;;;3.08;100.00
19831;BME280;10076;52.008;4.708;2024-01-15T08:21:55;100282.13;;;3.11;100.00
19831;BME280;10076;52.008;4.708;2024-01-15T08:24:20;100281.22;;;3.29;100.00
19831;BME280;10076;52.008;4.708;2024-01-15T08:26:45;100285.66;;;3.44;100.00
19831;BME280;10076;52.008;4.708;2024-01-15T08:29:11;100273.03;;;3.20;100.00
19831;BME280;10076;52.008;4.708;2024-01-15T08:31:36;100275.31;;;3.42;100.00
19831;BME280;10076;52.008;4.708;2024-01-15T08:34:01;100272.00;;;3.39;100.00
19831;BME280;10076;52.008;4.708;2024-01-15T08:36:27;100270.56;;;3.50;100.00
19831;BME280;10076;52.008;4.708;2024-01-15T08:38:55;100275.63;;;3.53;100.00
19831;BME280;10076;52.008;4.708;2024-01-15T08:41:20;100274.63;;;3.56;100.00
19831;BME280;10076;52.008;4.708;2024-01-15T08:43:45;100270.56;;;3.50;100.00
19831;BME280;10076;52.008;4.708;2024-01-15T08:46:11;100263.81;;;3.63;100.00
19831;BME280;10076;52.008;4.708;2024-01-15T08:48:36;100261.78;;;3.68;100.00
19831;BME280;10076;52.008;4.708;2024-01-15T08:51:01;100253.47;;;3.77;100.00
19831;BME280;10076;52.008;4.708;2024-01-15T08:53:27;100263.09;;;3.77;100.00
19831;BME280;10076;52.008;4.708;2024-01-15T08:55:53;100271.38;;;4.00;100.00
19831;BME280;10076;52.008;4.708;2024-01-15T08:58:18;100276.81;;;4.12;100.00
19831;BME280;10076;52.008;4.708;2024-01-15T09:00:43;100289.72;;;4.31;100.00
19831;BME280;10076;52.008;4.708;2024-01-15T09:03:09;100297.06;;;4.24;100.00
19831;BME280;10076;52.008;4.708;2024-01-15T09:05:35;100310.97;;;4.25;100.00
19831;BME280;10076;52.008;4.708;2024-01-15T09:08:00;100330.25;;;4.22;100.00
19831;BME280;10076;52.008;4.708;2024-01-15T09:10:26;100328.34;;;4.26;100.00
19831;BME280;10076;52.008;4.708;2024-01-15T09:12:51;100321.41;;;3.93;100.00
19831;BME280;10076;52.008;4.708;2024-01-15T09:15:16;100313.06;;;3.86;100.00
19831;BME280;10076;52.008;4.708;2024-01-15T09:17:42;100314.75;;;3.70;100.00
19831;BME280;10076;52.008;4.708;2024-01-15T09:20:08;100323.84;;;3.46;100.00
19831;BME280;10076;52.008;4.708;2024-01-15T09:22:34;100317.28;;;3.38;100.00
19831;BME280;10076;52.008;4.708;2024-01-15T09:24:59;100312.84;;;3.40;100.00
19831;BME280;10076;52.008;4.708;2024-01-15T09:27:27;100310.41;;;3.20;100.00
19831;BME280;10076;52.008;4.708;2024-01-15T09:29:52;100305.31;;;3.17;100.00
19831;BME280;10076;52.008;4.708;2024-01-15T09:32:18;100305.19;;;3.37;100.00
19831;BME280;10076;52.008;4.708;2024-01-15T09:34:44;100306.84;;;3.38;100.00
19831;BME280;10076;52.008;4.708;2024-01-15T09:37:11;100301.03;;;3.50;100.00
19831;BME280;10076;52.008;4.708;2024-01-15T09:39:36;100304.72;;;3.46;100.00
19831;BME280;10076;52.008;4.708;2024-01-15T09:42:02;100303.50;;;3.53;100.00
19831;BME280;10076;52.008;4.708;2024-01-15T09:44:28;100297.19;;;3.40;100.00
19831;BME280;10076;52.008;4.708;2024-01-15T09:46:55;100306.78;;;3.56;100.00
19831;BME280;10076;52.008;4.708;2024-01-15T09:49:24;100301.38;;;3.76;100.00
19831;BME280;10076;52.008;4.708;2024-01-15T09:51:49;100303.53;;;3.85;100.00
19831;BME280;10076;52.008;4.708;2024-01-15T09:54:18;100289.22;;;4.24;100.00
19831;BME280;10076;52.008;4.708;2024-01-15T09:56:47;100296.59;;;4.64;100.00
19831;BME280;10076;52.008;4.708;2024-01-15T09:59:16;100297.75;;;4.74;100.00
19831;BME280;10076;52.008;4.708;2024-01-15T10:01:45;100300.47;;;5.46;100.00
19831;BME280;10076;52.008;4.708;2024-01-15T10:04:12;100298.00;;;6.16;100.00
19831;BME280;10076;52.008;4.708;2024-01-15T10:06:39;100299.69;;;6.17;100.00
19831;BME280;10076;52.008;4.708;2024-01-15T10:09:05;100300.69;;;5.87;100.00
19831;BME280;10076;52.008;4.708;2024-01-15T10:11:30;100300.78;;;5.56;100.00
19831;BME280;10076;52.008;4.708;2024-01-15T10:13:57;100312.53;;;5.35;100.00
19831;BME280;10076;52.008;4.708;2024-01-15T10:16:22;100306.44;;;5.35;100.00
19831;BME280;10076;52.008;4.708;2024-01-15T10:18:49;100310.75;;;5.65;100.00
19831;BME280;10076;52.008;4.708;2024-01-15T10:21:14;100309.72;;;5.67;100.00
19831;BME280;10076;52.008;4.708;2024-01-15T10:23:41;100317.16;;;5.59;100.00
19831;BME280;10076;52.008;4.708;2024-01-15T10:26:06;100316.41;;;5.28;100.00
19831;BME280;10076;52.008;4.708;2024-01-15T10:28:32;100309.72;;;4.93;100.00
19831;BME280;10076;52.008;4.708;2024-01-15T10:30:58;100314.13;;;4.78;100.00
19831;BME280;10076;52.008;4.708;2024-01-15T10:33:24;100313.94;;;4.65;100.00
19831;BME280;10076;52.008;4.708;2024-01-15T10:35:54;100316.81;;;4.61;100.00
19831;BME280;10076;52.008;4.708;2024-01-15T10:38:21;100317.72;;;4.44;100.00
19831;BME280;10076;52.008;4.708;2024-01-15T10:40:48;100356.78;;;4.63;100.00
19831;BME280;10076;52.008;4.708;2024-01-15T10:43:16;100332.59;;;4.11;100.00
19831;BME280;10076;52.008;4.708;2024-01-15T10:45:44;100313.03;;;4.03;100.00
19831;BME280;10076;52.008;4.708;2024-01-15T10:48:10;100313.78;;;4.05;100.00
19831;BME280;10076;52.008;4.708;2024-01-15T10:50:36;100309.28;;;4.24;100.00
19831;BME280;10076;52.008;4.708;2024-01-15T10:53:01;100320.53;;;4.41;100.00
19831;BME280;10076;52.008;4.708;2024-01-15T10:55:29;100318.19;;;4.68;100.00
19831;BME280;10076;52.008;4.708;2024-01-15T10:57:56;100323.66;;;6.25;100.00
19831;BME280;10076;52.008;4.708;2024-01-15T11:00:22;100323.31;;;8.51;100.00
19831;BME280;10076;52.008;4.708;2024-01-15T11:02:47;100331.19;;;8.99;100.00
19831;BME280;10076;52.008;4.708;2024-01-15T11:05:13;100325.03;;;8.15;100.00
19831;BME280;10076;52.008;4.708;2024-01-15T11:07:39;100324.91;;;7.40;100.00
19831;BME280;10076;52.008;4.708;2024-01-15T11:10:06;100330.94;;;7.28;100.00
19831;BME280;10076;52.008;4.708;2024-01-15T11:12:33;100327.53;;;7.14;100.00
19831;BME280;10076;52.008;4.708;2024-01-15T11:15:03;100329.09;;;6.90;100.00
19831;BME280;10076;52.008;4.708;2024-01-15T11:18:00;100319.59;;;6.47;100.00
19831;BME280;10076;52.008;4.708;2024-01-15T11:20:28;100326.69;;;6.87;100.00
19831;BME280;10076;52.008;4.708;2024-01-15T11:22:55;100326.03;;;7.75;100.00
19831;BME280;10076;52.008;4.708;2024-01-15T11:25:22;100321.88;;;8.22;100.00
19831;BME280;10076;52.008;4.708;2024-01-15T11:28:00;100328.63;;;9.10;100.00
19831;BME280;10076;52.008;4.708;2024-01-15T11:30:28;100330.88;;;10.51;100.00
19831;BME280;10076;52.008;4.708;2024-01-15T11:32:53;100325.59;;;10.73;100.00
19831;BME280;10076;52.008;4.708;2024-01-15T11:35:19;100327.88;;;11.93;100.00
19831;BME280;10076;52.008;4.708;2024-01-15T11:40:18;100361.84;;;11.57;100.00
19831;BME280;10076;52.008;4.708;2024-01-15T11:42:45;100370.53;;;9.83;100.00
19831;BME280;10076;52.008;4.708;2024-01-15T11:45:10;100363.66;;;8.87;100.00
19831;BME280;10076;52.008;4.708;2024-01-15T11:50:21;100362.81;;;7.87;100.00
19831;BME280;10076;52.008;4.708;2024-01-15T11:53:02;100362.81;;;7.75;100.00
19831;BME280;10076;52.008;4.708;2024-01-15T11:55:36;100375.56;;;7.54;100.00
19831;BME280;10076;52.008;4.708;2024-01-15T11:58:08;100360.31;;;7.21;100.00
19831;BME280;10076;52.008;4.708;2024-01-15T12:00:34;100361.91;;;7.23;100.00
19831;BME280;10076;52.008;4.708;2024-01-15T12:02:59;100368.88;;;7.37;100.00
19831;BME280;10076;52.008;4.708;2024-01-15T12:05:27;100362.66;;;6.85;100.00
19831;BME280;10076;52.008;4.708;2024-01-15T12:07:52;100366.44;;;6.81;100.00
19831;BME280;10076;52.008;4.708;2024-01-15T12:10:19;100375.81;;;6.43;100.00
19831;BME280;10076;52.008;4.708;2024-01-15T12:13:00;100381.50;;;6.22;100.00
19831;BME280;10076;52.008;4.708;2024-01-15T12:15:27;100384.88;;;5.81;100.00
19831;BME280;10076;52.008;4.708;2024-01-15T12:17:55;100391.91;;;5.65;100.00
19831;BME280;10076;52.008;4.708;2024-01-15T12:20:23;100404.59;;;5.57;100.00
19831;BME280;10076;52.008;4.708;2024-01-15T12:22:49;100398.19;;;5.92;100.00
19831;BME280;10076;52.008;4.708;2024-01-15T12:25:14;100389.94;;;6.41;100.00
19831;BME280;10076;52.008;4.708;2024-01-15T12:27:40;100386.53;;;8.12;100.00
19831;BME280;10076;52.008;4.708;2024-01-15T12:30:06;100389.81;;;8.78;100.00
19831;BME280;10076;52.008;4.708;2024-01-15T12:32:32;100386.47;;;8.38;100.00
19831;BME280;10076;52.008;4.708;2024-01-15T12:35:00;100390.38;;;7.94;100.00
19831;BME280;10076;52.008;4.708;2024-01-15T12:37:25;100383.00;;;7.48;100.00
19831;BME280;10076;52.008;4.708;2024-01-15T12:39:52;100391.19;;;7.03;100.00
19831;BME280;10076;52.008;4.708;2024-01-15T12:42:20;100388.47;;;6.37;100.00
19831;BME280;10076;52.008;4.708;2024-01-15T12:44:46;100399.41;;;6.29;100.00
19831;BME280;10076;52.008;4.708;2024-01-15T12:47:12;100403.47;;;6.06;100.00
19831;BME280;10076;52.008;4.708;2024-01-15T12:49:38;100403.44;;;5.92;100.00